Time;durP1;ratioP1;P1;durP2;ratioP2;P2;SDS_P1;SDS_P2;PMS_P1;PMS_P2;Temp;Humidity;BMP_temperature;BMP_pressure;BME280_temperature;BME280_humidity;BME280_pressure;Samples;Min_cycle;Max_cycle;Signal;HPM_P1;HPM_P2
2023/01/10 00:00:40;;;;;;;;;;;;;;;;;;;;;
2023/01/10 00:03:19;;;;;;;;;;;;;;;;;;2034485;29;19911;-88
2023/01/10 00:04:19;;;;;;;;;;;;;;;;;;2031507;29;20009;-88
2023/01/10 00:05:19;;;;;;;;;;;;;;;;;;2031692;29;19974;-88
2023/01/10 00:06:20;;;;;;;;;;;;;;;;;;2031564;29;19914;-88
2023/01/10 00:07:20;;;;;;;;;;;;;;;;;;2023825;29;19915;-88
2023/01/10 00:08:25;;;;;;;;;;;;;;;;;;2023876;29;19991;-88
2023/01/10 00:09:29;;;;;;;;;;;;;;;;;;2023512;29;19911;-88
2023/01/10 00:10:30;;;;;;;;;;;;;;;;;;2024092;29;20002;-89
2023/01/10 00:14:08;;;;;;;;;;;;;;;;;;2031572;29;19914;-88
2023/01/10 00:15:08;;;;;;;;;;;;;;;;;;2028258;29;20366;-88
2023/01/10 00:16:08;;;;;;;;;;;;;;;;;;2047586;29;19942;-88
2023/01/10 00:17:09;;;;;;;;;;;;;;;;;;2047536;29;19917;-88
2023/01/10 00:18:09;;;;;;;;;;;;;;;;;;2047571;29;19910;-88
2023/01/10 00:19:10;;;;;;;;;;;;;;;;;;2051052;28;20032;-88
2023/01/10 00:20:10;;;;;;;;;;;;;;;;;;2049205;29;19915;-87
2023/01/10 00:21:13;;;;;;;;;;;;;;;;;;2055765;28;19910;-87
2023/01/10 00:22:13;;;;;;;;;;;;;;;;;;2056541;28;19942;-87
2023/01/10 00:23:14;;;;;;;;;;;;;;;;;;2048008;29;20392;-87
2023/01/10 00:24:21;;;;;;;;;;;;;;;;;;2040227;29;19911;-87
2023/01/10 00:25:21;;;;;;;;;;;;;;;;;;2058765;28;19911;-88
2023/01/10 00:34:43;;;;;;;;;;;;;;;;;;2054184;28;20009;-87
2023/01/10 00:35:43;;;;;;;;;;;;;;;;;;2056471;28;19910;-87
2023/01/10 00:36:46;;;;;;;;;;;;;;;;;;2056512;28;19910;-89
2023/01/10 00:37:46;;;;;;;;;;;;;;;;;;2063882;28;19921;-87
2023/01/10 00:38:49;;;;;;;;;;;;;;;;;;2063635;28;19956;-88
2023/01/10 00:39:49;;;;;;;;;;;;;;;;;;2055777;28;20008;-88
2023/01/10 00:43:58;;;;;;;;;;;;;;;;;;2064229;28;20287;-88
2023/01/10 00:44:58;;;;;;;;;;;;;;;;;;2063419;28;19914;-88
2023/01/10 00:46:00;;;;;;;;;;;;;;;;;;2063379;28;19913;-88
2023/01/10 00:47:00;;;;;;;;;;;;;;;;;;1724509;28;10001076;-88
2023/01/10 00:49:56;;;;;;;;;;;;;;;;;;2039985;29;19907;-89
2023/01/10 00:54:51;;;;;;;;;;;;;;;;;;;;;
2023/01/10 00:55:54;;;;;;;;;;;;;;;;;;2036879;29;19911;-89
2023/01/10 00:56:55;;;;;;;;;;;;;;;;;;2039386;29;20385;-89
2023/01/10 00:57:56;;;;;;;;;;;;;;;;;;2031783;29;20398;-88
2023/01/10 00:58:56;;;;;;;;;;;;;;;;;;2050140;28;19910;-89
2023/01/10 00:59:57;;;;;;;;;;;;;;;;;;2063429;28;19910;-88
2023/01/10 01:00:57;;;;;;;;;;;;;;;;;;2065569;28;19909;-89
2023/01/10 01:01:57;;;;;;;;;;;;;;;;;;2063506;28;20282;-89
2023/01/10 01:02:58;;;;;;;;;;;;;;;;;;2063684;28;19910;-89
2023/01/10 01:05:42;;;;;;;;;;;;;;;;;;2053131;28;19928;-87
2023/01/10 01:06:45;;;;;;;;;;;;;;;;;;2055280;28;19909;-90
2023/01/10 01:07:47;;;;;;;;;;;;;;;;;;2055660;28;19910;-88
2023/01/10 01:08:47;;;;;;;;;;;;;;;;;;2063400;28;20256;-88
2023/01/10 01:11:06;;;;;;;;;;;;;;;;;;2064145;28;19909;-87
2023/01/10 01:12:06;;;;;;;;;;;;;;;;;;2064181;28;19932;-89
2023/01/10 01:13:08;;;;;;;;;;;;;;;;;;2064321;28;20372;-89
2023/01/10 01:14:09;;;;;;;;;;;;;;;;;;2063432;28;20443;-88
2023/01/10 01:17:24;;;;;;;;;;;;;;;;;;2066980;28;19913;-88
2023/01/10 01:18:26;;;;;;;;;;;;;;;;;;2063318;28;19931;-88
2023/01/10 01:19:27;;;;;;;;;;;;;;;;;;2063669;28;19910;-88
2023/01/10 01:20:28;;;;;;;;;;;;;;;;;;2064278;28;19972;-89
2023/01/10 01:21:50;;;;;;;;;;;;;;;;;;2064323;28;19917;-89
2023/01/10 01:23:14;;;;;;;;;;;;;;;;;;2064371;28;19910;-88
2023/01/10 01:24:41;;;;;;;;;;;;;;;;;;2063294;28;19963;-88
2023/01/10 01:25:42;;;;;;;;;;;;;;;;;;2063816;28;19914;-89
2023/01/10 01:26:42;;;;;;;;;;;;;;;;;;2064135;28;20404;-88
2023/01/10 01:27:42;;;;;;;;;;;;;;;;;;2064350;28;19916;-89
2023/01/10 01:28:43;;;;;;;;;;;;;;;;;;2064187;28;20000;-89
2023/01/10 01:29:43;;;;;;;;;;;;;;;;;;2064347;28;20000;-88
2023/01/10 01:30:44;;;;;;;;;;;;;;;;;;2064091;28;20327;-89
2023/01/10 01:31:45;;;;;;;;;;;;;;;;;;2066005;28;19914;-89
2023/01/10 01:32:45;;;;;;;;;;;;;;;;;;2065839;28;19931;-89
2023/01/10 01:35:36;;;;;;;;;;;;;;;;;;2040633;29;20630;-89
2023/01/10 01:36:45;;;;;;;;;;;;;;;;;;2040958;28;19914;-89
2023/01/10 01:37:46;;;;;;;;;;;;;;;;;;2052931;28;19918;-88
2023/01/10 01:38:46;;;;;;;;;;;;;;;;;;2065039;28;19996;-88
2023/01/10 01:39:46;;;;;;;;;;;;;;;;;;1712420;28;10249424;-88
2023/01/10 01:44:47;;;;;;;;;;;;;;;;;;2057658;28;20045;-86
2023/01/10 01:45:48;;;;;;;;;;;;;;;;;;2062337;28;20012;-85
2023/01/10 01:47:08;;;;;;;;;;;;;;;;;;2060038;28;19937;-84
2023/01/10 01:48:15;;;;;;;;;;;;;;;;;;2063065;28;19934;-86
2023/01/10 01:49:19;;;;;;;;;;;;;;;;;;2064383;28;20380;-85
2023/01/10 01:50:22;;;;;;;;;;;;;;;;;;2067511;28;19909;-87
2023/01/10 01:51:25;;;;;;;;;;;;;;;;;;2066935;28;20414;-87
2023/01/10 01:52:28;;;;;;;;;;;;;;;;;;2065759;28;20001;-87
2023/01/10 01:54:00;;;;;;;;;;;;;;;;;;2065658;28;19917;-87
2023/01/10 01:55:01;;;;;;;;;;;;;;;;;;2048588;29;19993;-86
2023/01/10 01:56:07;;;;;;;;;;;;;;;;;;2060412;28;19909;-86
2023/01/10 01:57:12;;;;;;;;;;;;;;;;;;2071517;28;19957;-87
2023/01/10 01:58:15;;;;;;;;;;;;;;;;;;1728149;28;10001321;-87
2023/01/10 01:59:22;;;;;;;;;;;;;;;;;;2072190;28;19945;-87
2023/01/10 02:00:23;;;;;;;;;;;;;;;;;;2070159;28;19946;-87
2023/01/10 02:01:23;;;;;;;;;;;;;;;;;;2067411;28;19916;-87
2023/01/10 02:02:26;;;;;;;;;;;;;;;;;;2067130;28;19925;-86
2023/01/10 02:03:28;;;;;;;;;;;;;;;;;;2067357;28;19909;-87
2023/01/10 02:04:33;;;;;;;;;;;;;;;;;;2065359;28;19916;-88
2023/01/10 02:05:36;;;;;;;;;;;;;;;;;;2057539;28;19914;-88
2023/01/10 02:06:37;;;;;;;;;;;;;;;;;;2057376;28;19909;-88
2023/01/10 02:07:39;;;;;;;;;;;;;;;;;;2065004;28;20116;-88
2023/01/10 02:08:43;;;;;;;;;;;;;;;;;;2066044;28;20021;-88
2023/01/10 02:09:51;;;;;;;;;;;;;;;;;;2065721;28;19992;-88
2023/01/10 02:10:57;;;;;;;;;;;;;;;;;;2065014;28;20185;-87
2023/01/10 02:11:57;;;;;;;;;;;;;;;;;;2065596;28;19909;-86
2023/01/10 02:14:49;;;;;;;;;;;;;;;;;;2050205;28;19910;-87
2023/01/10 02:15:50;;;;;;;;;;;;;;;;;;2053865;28;20353;-88
2023/01/10 02:16:50;;;;;;;;;;;;;;;;;;2065021;28;19952;-87
2023/01/10 02:17:51;;;;;;;;;;;;;;;;;;2056864;28;19917;-88
2023/01/10 02:18:51;;;;;;;;;;;;;;;;;;2064929;28;19945;-88
2023/01/10 02:20:02;;;;;;;;;;;;;;;;;;2064756;28;19910;-88
2023/01/10 02:21:13;;;;;;;;;;;;;;;;;;2058088;28;19992;-88
2023/01/10 02:22:13;;;;;;;;;;;;;;;;;;2058349;28;20037;-88
2023/01/10 02:23:32;;;;;;;;;;;;;;;;;;2056941;28;19941;-88
2023/01/10 02:24:51;;;;;;;;;;;;;;;;;;2065065;28;19913;-89
2023/01/10 02:26:10;;;;;;;;;;;;;;;;;;1720026;28;10001339;-89
2023/01/10 02:27:19;;;;;;;;;;;;;;;;;;2066499;28;19913;-88
2023/01/10 02:28:19;;;;;;;;;;;;;;;;;;2065063;28;19944;-88
2023/01/10 02:29:23;;;;;;;;;;;;;;;;;;2064847;28;20264;-88
2023/01/10 02:31:08;;;;;;;;;;;;;;;;;;2064962;28;19914;-88
2023/01/10 02:32:13;;;;;;;;;;;;;;;;;;2048437;29;19925;-88
2023/01/10 02:33:22;;;;;;;;;;;;;;;;;;2053073;28;19942;-88
2023/01/10 02:34:25;;;;;;;;;;;;;;;;;;2065676;28;20098;-89
2023/01/10 02:35:31;;;;;;;;;;;;;;;;;;2065514;28;19910;-90
2023/01/10 02:36:43;;;;;;;;;;;;;;;;;;2065481;28;19909;-87
2023/01/10 02:37:50;;;;;;;;;;;;;;;;;;2064465;28;19941;-88
2023/01/10 02:38:57;;;;;;;;;;;;;;;;;;2064993;28;19910;-88
2023/01/10 02:40:02;;;;;;;;;;;;;;;;;;2065440;28;20363;-89
2023/01/10 02:41:09;;;;;;;;;;;;;;;;;;2064756;28;19914;-88
2023/01/10 02:42:23;;;;;;;;;;;;;;;;;;2057370;28;19910;-89
2023/01/10 02:43:27;;;;;;;;;;;;;;;;;;2057898;28;19945;-89
2023/01/10 02:44:35;;;;;;;;;;;;;;;;;;2064637;28;19909;-88
2023/01/10 02:45:46;;;;;;;;;;;;;;;;;;2065059;28;19925;-88
2023/01/10 02:46:47;;;;;;;;;;;;;;;;;;2065132;28;19921;-88
2023/01/10 02:47:47;;;;;;;;;;;;;;;;;;2065376;28;19910;-89
2023/01/10 02:48:47;;;;;;;;;;;;;;;;;;2065250;28;20008;-89
2023/01/10 02:49:49;;;;;;;;;;;;;;;;;;2064679;28;20446;-89
2023/01/10 02:50:52;;;;;;;;;;;;;;;;;;2056595;28;20489;-89
2023/01/10 02:51:53;;;;;;;;;;;;;;;;;;2064753;28;20265;-89
2023/01/10 02:52:55;;;;;;;;;;;;;;;;;;2065605;28;20017;-89
2023/01/10 02:53:59;;;;;;;;;;;;;;;;;;2064836;28;19973;-88
2023/01/10 02:55:00;;;;;;;;;;;;;;;;;;2064427;28;19910;-89
2023/01/10 02:56:12;;;;;;;;;;;;;;;;;;2056466;28;19964;-89
2023/01/10 02:57:31;;;;;;;;;;;;;;;;;;2057851;28;19910;-88
2023/01/10 02:58:32;;;;;;;;;;;;;;;;;;2064652;28;20376;-88
2023/01/10 02:59:32;;;;;;;;;;;;;;;;;;2065048;28;19910;-87
2023/01/10 03:02:48;;;;;;;;;;;;;;;;;;2067254;28;19921;-88
2023/01/10 03:04:01;;;;;;;;;;;;;;;;;;2065037;28;19909;-87
2023/01/10 03:06:00;;;;;;;;;;;;;;;;;;2057711;28;19913;-87
2023/01/10 03:06:52;;;;;;;;;;;;;;;;;;2060087;28;20284;-87
2023/01/10 03:08:01;;;;;;;;;;;;;;;;;;2064594;28;19936;-87
2023/01/10 03:09:08;;;;;;;;;;;;;;;;;;2068930;28;19977;-87
2023/01/10 03:10:23;;;;;;;;;;;;;;;;;;2082250;28;19955;-87
2023/01/10 03:11:53;;;;;;;;;;;;;;;;;;2075492;28;19913;-87
2023/01/10 03:13:00;;;;;;;;;;;;;;;;;;2074995;28;19997;-87
2023/01/10 03:15:56;;;;;;;;;;;;;;;;;;2065820;28;19917;-87
2023/01/10 03:17:03;;;;;;;;;;;;;;;;;;2065290;28;19925;-87
2023/01/10 03:18:07;;;;;;;;;;;;;;;;;;2065220;28;19951;-87
2023/01/10 03:19:47;;;;;;;;;;;;;;;;;;;;;
2023/01/10 03:20:48;;;;;;;;;;;;;;;;;;2065543;28;19910;-88
2023/01/10 03:21:52;;;;;;;;;;;;;;;;;;2064583;28;19920;-87
2023/01/10 03:22:54;;;;;;;;;;;;;;;;;;2064464;28;19916;-87
2023/01/10 03:24:01;;;;;;;;;;;;;;;;;;2064975;28;19968;-87
2023/01/10 03:25:03;;;;;;;;;;;;;;;;;;2064820;28;19972;-87
2023/01/10 03:26:37;;;;;;;;;;;;;;;;;;2065026;28;19941;-89
2023/01/10 03:27:37;;;;;;;;;;;;;;;;;;2063958;28;19932;-87
2023/01/10 03:28:44;;;;;;;;;;;;;;;;;;2064133;28;19921;-87
2023/01/10 03:29:55;;;;;;;;;;;;;;;;;;2065456;28;20079;-87
2023/01/10 03:30:58;;;;;;;;;;;;;;;;;;2065834;28;19937;-87
2023/01/10 03:32:01;;;;;;;;;;;;;;;;;;2074652;28;19960;-87
2023/01/10 03:33:02;;;;;;;;;;;;;;;;;;2074970;28;19914;-86
2023/01/10 03:34:05;;;;;;;;;;;;;;;;;;2074781;28;20025;-88
2023/01/10 03:35:06;;;;;;;;;;;;;;;;;;2073128;28;19909;-88
2023/01/10 03:36:20;;;;;;;;;;;;;;;;;;2067448;28;20440;-88
2023/01/10 03:37:30;;;;;;;;;;;;;;;;;;2064529;28;19957;-89
2023/01/10 03:38:33;;;;;;;;;;;;;;;;;;2064531;28;20287;-88
2023/01/10 03:39:43;;;;;;;;;;;;;;;;;;2063951;28;20028;-88
2023/01/10 03:40:52;;;;;;;;;;;;;;;;;;2064075;28;19910;-89
2023/01/10 03:42:04;;;;;;;;;;;;;;;;;;2057007;28;19968;-88
2023/01/10 03:44:45;;;;;;;;;;;;;;;;;;2064400;28;19909;-88
2023/01/10 03:45:48;;;;;;;;;;;;;;;;;;2064656;28;19964;-89
2023/01/10 03:47:02;;;;;;;;;;;;;;;;;;2063999;28;20341;-88
2023/01/10 03:53:40;;;;;;;;;;;;;;;;;;2065121;28;19909;-88
2023/01/10 03:54:41;;;;;;;;;;;;;;;;;;2063179;28;19996;-88
2023/01/10 03:55:43;;;;;;;;;;;;;;;;;;2063926;28;19979;-89
2023/01/10 03:56:48;;;;;;;;;;;;;;;;;;2063984;28;20106;-88
2023/01/10 03:57:48;;;;;;;;;;;;;;;;;;2056379;28;20030;-88
2023/01/10 03:58:54;;;;;;;;;;;;;;;;;;2063889;28;19918;-89
2023/01/10 03:59:58;;;;;;;;;;;;;;;;;;2063895;28;19914;-88
2023/01/10 04:00:58;;;;;;;;;;;;;;;;;;2056070;28;19921;-89
2023/01/10 04:01:58;;;;;;;;;;;;;;;;;;2060198;28;19910;-88
2023/01/10 04:02:59;;;;;;;;;;;;;;;;;;2061301;28;20246;-88
2023/01/10 04:04:17;;;;;;;;;;;;;;;;;;2057939;28;20352;-89
2023/01/10 04:05:17;;;;;;;;;;;;;;;;;;2058192;28;19949;-87
2023/01/10 04:06:19;;;;;;;;;;;;;;;;;;2056088;28;19918;-88
2023/01/10 04:07:19;;;;;;;;;;;;;;;;;;2063880;28;19914;-88
2023/01/10 04:08:19;;;;;;;;;;;;;;;;;;2064583;28;19910;-89
2023/01/10 04:09:32;;;;;;;;;;;;;;;;;;;;;
2023/01/10 04:10:55;;;;;;;;;;;;;;;;;;2064338;28;20001;-88
2023/01/10 04:11:58;;;;;;;;;;;;;;;;;;2063917;28;19914;-88
2023/01/10 04:13:00;;;;;;;;;;;;;;;;;;2063810;28;19935;-88
2023/01/10 04:14:00;;;;;;;;;;;;;;;;;;2063675;28;19964;-88
2023/01/10 04:15:01;;;;;;;;;;;;;;;;;;2056155;28;19985;-88
2023/01/10 04:16:02;;;;;;;;;;;;;;;;;;2063759;28;20409;-88
2023/01/10 04:17:05;;;;;;;;;;;;;;;;;;2063723;28;19921;-89
2023/01/10 04:18:26;;;;;;;;;;;;;;;;;;2064019;28;19917;-88
2023/01/10 04:19:26;;;;;;;;;;;;;;;;;;2068292;28;20008;-87
2023/01/10 04:20:27;;;;;;;;;;;;;;;;;;2071135;28;20420;-86
2023/01/10 04:35:23;;;;;;;;;;;;;;;;;;2019098;29;20006;-88
2023/01/10 04:36:23;;;;;;;;;;;;;;;;;;1671096;29;10001038;-86
2023/01/10 04:37:23;;;;;;;;;;;;;;;;;;2018871;29;19915;-86
2023/01/10 04:38:23;;;;;;;;;;;;;;;;;;2023834;29;19912;-89
2023/01/10 04:39:24;;;;;;;;;;;;;;;;;;2023968;29;19959;-87
2023/01/10 04:40:24;;;;;;;;;;;;;;;;;;2056962;28;20251;-88
2023/01/10 04:41:24;;;;;;;;;;;;;;;;;;2055666;28;19949;-89
2023/01/10 04:42:25;;;;;;;;;;;;;;;;;;2055466;28;19933;-88
2023/01/10 04:43:25;;;;;;;;;;;;;;;;;;2064106;28;20011;-88
2023/01/10 04:44:26;;;;;;;;;;;;;;;;;;2064291;28;20311;-88
2023/01/10 04:45:26;;;;;;;;;;;;;;;;;;2063810;28;19914;-87
2023/01/10 04:46:26;;;;;;;;;;;;;;;;;;2056480;28;19932;-85
2023/01/10 04:55:00;;;;;;;;;;;;;;;;;;2047212;29;19996;-88
2023/01/10 05:01:34;;;;;;;;;;;;;;;;;;2051946;28;19906;-87
2023/01/10 05:09:24;;;;;;;;;;;;;;;;;;2008535;29;20321;-88
2023/01/10 05:10:24;;;;;;;;;;;;;;;;;;2002715;29;20352;-88
2023/01/10 05:11:24;;;;;;;;;;;;;;;;;;2017032;29;19998;-89
2023/01/10 05:12:25;;;;;;;;;;;;;;;;;;2031273;29;20305;-88
2023/01/10 05:13:26;;;;;;;;;;;;;;;;;;2023575;29;19922;-88
2023/01/10 05:14:27;;;;;;;;;;;;;;;;;;2039593;28;19918;-89
2023/01/10 05:15:28;;;;;;;;;;;;;;;;;;2064688;28;20237;-88
2023/01/10 05:16:29;;;;;;;;;;;;;;;;;;2064502;28;20295;-88
2023/01/10 05:17:29;;;;;;;;;;;;;;;;;;2063462;28;19910;-88
2023/01/10 05:20:24;;;;;;;;;;;;;;;;;;2048613;28;19914;-87
2023/01/10 05:43:22;;;;;;;;;;;;;;;;;;2038435;29;19970;-88
2023/01/10 05:44:22;;;;;;;;;;;;;;;;;;2031576;29;19930;-87
2023/01/10 05:45:27;;;;;;;;;;;;;;;;;;2050457;28;19929;-87
2023/01/10 05:46:30;;;;;;;;;;;;;;;;;;2064529;28;20416;-88
2023/01/10 05:47:44;;;;;;;;;;;;;;;;;;;;;
2023/01/10 05:50:26;;;;;;;;;;;;;;;;;;2048633;28;19934;-88
2023/01/10 05:51:52;;;;;;;;;;;;;;;;;;1727729;28;10001755;-87
2023/01/10 05:52:52;;;;;;;;;;;;;;;;;;2060812;28;19965;-88
2023/01/10 05:53:53;;;;;;;;;;;;;;;;;;2067990;28;19974;-90
2023/01/10 05:54:53;;;;;;;;;;;;;;;;;;2073124;28;19913;-89
2023/01/10 05:55:55;;;;;;;;;;;;;;;;;;2071287;28;19906;-88
2023/01/10 05:56:55;;;;;;;;;;;;;;;;;;2077548;28;19940;-88
2023/01/10 05:59:42;;;;;;;;;;;;;;;;;;2040806;28;20545;-89
2023/01/10 06:00:51;;;;;;;;;;;;;;;;;;2066809;28;20060;-88
2023/01/10 06:02:01;;;;;;;;;;;;;;;;;;2060741;28;20008;-86
2023/01/10 06:06:41;;;;;;;;;;;;;;;;;;2040821;29;20380;-87
2023/01/10 06:07:54;;;;;;;;;;;;;;;;;;;;;
2023/01/10 06:08:55;;;;;;;;;;;;;;;;;;2042310;29;19917;-87
2023/01/10 06:09:55;;;;;;;;;;;;;;;;;;2055629;28;19966;-86
2023/01/10 06:10:55;;;;;;;;;;;;;;;;;;2066379;28;19958;-87
2023/01/10 06:11:56;;;;;;;;;;;;;;;;;;2079101;28;20063;-87
2023/01/10 06:12:56;;;;;;;;;;;;;;;;;;2071874;28;19908;-87
2023/01/10 06:14:10;;;;;;;;;;;;;;;;;;2081070;28;19913;-87
2023/01/10 06:20:12;;;;;;;;;;;;;;;;;;2050855;28;19910;-87
2023/01/10 06:21:22;;;;;;;;;;;;;;;;;;2041475;29;19915;-89
2023/01/10 06:22:32;;;;;;;;;;;;;;;;;;2047476;28;20024;-87
2023/01/10 06:23:32;;;;;;;;;;;;;;;;;;2071366;28;19964;-88
2023/01/10 06:24:41;;;;;;;;;;;;;;;;;;2062982;28;20075;-88
2023/01/10 06:28:05;;;;;;;;;;;;;;;;;;2150053;23;20127;-88
2023/01/10 06:29:05;;;;;;;;;;;;;;;;;;2085887;28;19937;-87
2023/01/10 06:30:06;;;;;;;;;;;;;;;;;;2081340;28;19912;-88
2023/01/10 06:31:07;;;;;;;;;;;;;;;;;;2082941;28;19932;-88
2023/01/10 06:32:07;;;;;;;;;;;;;;;;;;2078621;28;19917;-88
2023/01/10 06:33:13;;;;;;;;;;;;;;;;;;2076364;28;19909;-88
2023/01/10 06:34:13;;;;;;;;;;;;;;;;;;2076804;28;20023;-88
2023/01/10 07:04:46;;;;;;;;;;;;;;;;;;;;;
2023/01/10 07:06:12;;;;;;;;;;;;;;;;;;;;;
2023/01/10 07:07:15;;;;;;;;;;;;;;;;;;2074396;28;19909;-88
2023/01/10 07:08:55;;;;;;;;;;;;;;;;;;2077093;28;20043;-89
2023/01/10 07:12:43;;;;;;;;;;;;;;;;;;2074739;28;19909;-90
2023/01/10 07:13:24;;;;;;;;;;;;;;;;;;2060151;28;19998;-89
2023/01/10 07:20:32;;;;;;;;;;;;;;;;;;;;;
2023/01/10 07:23:46;;;;;;;;;;;;;;;;;;;;;
2023/01/10 07:37:58;;;;;;;;;;;;;;;;;;2038166;29;19914;-89
2023/01/10 07:38:58;;;;;;;;;;;;;;;;;;2048405;29;19966;-89
2023/01/10 08:34:22;;;;;;;;;;;;;;;;;;1903875;23;20281;-89
2023/01/10 08:37:22;;;;;;;;;;;;;;;;;;2081585;28;19917;-88
2023/01/10 08:38:28;;;;;;;;;;;;;;;;;;2081020;28;19912;-90
2023/01/10 08:39:29;;;;;;;;;;;;;;;;;;1724485;28;10001185;-90
2023/01/10 08:40:32;;;;;;;;;;;;;;;;;;2063502;28;20019;-91
2023/01/10 08:41:41;;;;;;;;;;;;;;;;;;2072118;28;19984;-90
2023/01/10 08:42:42;;;;;;;;;;;;;;;;;;2080953;28;19909;-90
2023/01/10 08:44:03;;;;;;;;;;;;;;;;;;2080554;28;19916;-90
2023/01/10 08:45:15;;;;;;;;;;;;;;;;;;2071728;28;19913;-89
2023/01/10 08:46:55;;;;;;;;;;;;;;;;;;;;;
2023/01/10 08:47:56;;;;;;;;;;;;;;;;;;2078437;28;19996;-90
2023/01/10 08:48:58;;;;;;;;;;;;;;;;;;2071640;28;20268;-90
2023/01/10 08:50:30;;;;;;;;;;;;;;;;;;2073177;28;19910;-88
2023/01/10 09:00:50;;;;;;;;;;;;;;;;;;2084397;23;19921;-88
2023/01/10 09:02:03;;;;;;;;;;;;;;;;;;;;;
2023/01/10 09:03:07;;;;;;;;;;;;;;;;;;2080379;28;19909;-88
2023/01/10 09:09:01;;;;;;;;;;;;;;;;;;2044866;28;19910;-89
2023/01/10 09:10:20;;;;;;;;;;;;;;;;;;2080342;28;19913;-89
2023/01/10 09:12:53;;;;;;;;;;;;;;;;;;2071991;28;19964;-89
2023/01/10 09:13:16;;;;;;;;;;;;;;;;;;2078773;28;19909;-89
2023/01/10 09:14:16;;;;;;;;;;;;;;;;;;2080623;28;19964;-89
2023/01/10 09:15:16;;;;;;;;;;;;;;;;;;2071707;28;19909;-88
2023/01/10 09:16:17;;;;;;;;;;;;;;;;;;2071547;28;20399;-89
2023/01/10 09:17:17;;;;;;;;;;;;;;;;;;2080472;28;20383;-88
2023/01/10 09:18:26;;;;;;;;;;;;;;;;;;2071258;28;19918;-87
2023/01/10 09:19:27;;;;;;;;;;;;;;;;;;2071501;28;19983;-88
2023/01/10 09:20:32;;;;;;;;;;;;;;;;;;2071613;28;19995;-88
2023/01/10 09:21:58;;;;;;;;;;;;;;;;;;2079716;28;19920;-88
2023/01/10 09:22:56;;;;;;;;;;;;;;;;;;1725435;28;10001715;-90
2023/01/10 09:23:56;;;;;;;;;;;;;;;;;;2071723;28;20000;-87
2023/01/10 09:27:08;;;;;;;;;;;;;;;;;;2060439;28;19929;-87
2023/01/10 09:28:09;;;;;;;;;;;;;;;;;;2058988;28;19910;-89
2023/01/10 09:29:31;;;;;;;;;;;;;;;;;;2078518;28;19973;-89
2023/01/10 09:34:23;;;;;;;;;;;;;;;;;;2071962;28;19917;-89
2023/01/10 09:35:24;;;;;;;;;;;;;;;;;;2068001;28;19909;-88
2023/01/10 09:36:27;;;;;;;;;;;;;;;;;;2076414;28;20392;-89
2023/01/10 09:46:10;;;;;;;;;;;;;;;;;;2032161;29;20002;-89
2023/01/10 09:49:22;;;;;;;;;;;;;;;;;;2025184;29;19919;-89
2023/01/10 09:52:21;;;;;;;;;;;;;;;;;;2007610;29;20364;-89
2023/01/10 09:53:22;;;;;;;;;;;;;;;;;;2009075;29;19920;-90
2023/01/10 09:54:32;;;;;;;;;;;;;;;;;;2003699;29;20012;-90
2023/01/10 09:55:35;;;;;;;;;;;;;;;;;;2009722;29;20054;-91
2023/01/10 09:56:41;;;;;;;;;;;;;;;;;;2014249;29;20704;-93
2023/01/10 09:59:50;;;;;;;;;;;;;;;;;;2081708;28;19909;-91
2023/01/10 10:29:07;;;;;;;;;;;;;;;;;;1698635;23;19925;-90
2023/01/10 10:35:20;;;;;;;;;;;;;;;;;;2041692;28;19953;-89
2023/01/10 10:36:23;;;;;;;;;;;;;;;;;;2075706;28;20444;-90
2023/01/10 10:37:31;;;;;;;;;;;;;;;;;;2077120;28;20434;-89
2023/01/10 10:38:34;;;;;;;;;;;;;;;;;;2073951;28;19916;-89
2023/01/10 10:39:51;;;;;;;;;;;;;;;;;;2078724;28;19913;-90
2023/01/10 10:41:12;;;;;;;;;;;;;;;;;;2083343;28;20058;-90
2023/01/10 10:42:14;;;;;;;;;;;;;;;;;;2080647;28;20003;-90
2023/01/10 10:43:20;;;;;;;;;;;;;;;;;;2073854;28;19916;-90
2023/01/10 10:44:26;;;;;;;;;;;;;;;;;;2065506;28;19913;-89
2023/01/10 10:46:01;;;;;;;;;;;;;;;;;;2064999;28;20005;-90
2023/01/10 10:47:09;;;;;;;;;;;;;;;;;;2068347;28;20000;-91
2023/01/10 10:48:16;;;;;;;;;;;;;;;;;;2064252;28;19910;-89
2023/01/10 10:49:49;;;;;;;;;;;;;;;;;;2057238;28;19910;-90
2023/01/10 10:51:09;;;;;;;;;;;;;;;;;;2043774;29;19914;-90
2023/01/10 10:52:22;;;;;;;;;;;;;;;;;;2039980;29;20266;-91
2023/01/10 10:53:46;;;;;;;;;;;;;;;;;;2064497;28;19909;-92
2023/01/10 10:54:47;;;;;;;;;;;;;;;;;;2068201;28;20024;-92
2023/01/10 10:55:49;;;;;;;;;;;;;;;;;;2073742;28;19920;-92
2023/01/10 10:56:53;;;;;;;;;;;;;;;;;;2064786;28;19993;-92
2023/01/10 11:01:12;;;;;;;;;;;;;;;;;;2074024;28;20331;-91
2023/01/10 11:02:25;;;;;;;;;;;;;;;;;;2073720;28;19909;-93
2023/01/10 11:10:34;;;;;;;;;;;;;;;;;;2265548;23;20281;-89
2023/01/10 11:11:43;;;;;;;;;;;;;;;;;;2083104;28;19909;-90
2023/01/10 11:13:26;;;;;;;;;;;;;;;;;;;;;
2023/01/10 11:14:46;;;;;;;;;;;;;;;;;;2038452;29;20148;-88
2023/01/10 11:15:51;;;;;;;;;;;;;;;;;;2082397;28;19913;-88
2023/01/10 11:19:03;;;;;;;;;;;;;;;;;;2049389;29;19918;-89
2023/01/10 11:20:24;;;;;;;;;;;;;;;;;;1358844;28;10001806;-90
2023/01/10 11:21:50;;;;;;;;;;;;;;;;;;2068479;28;20125;-90
2023/01/10 11:22:52;;;;;;;;;;;;;;;;;;2059463;28;19910;-90
2023/01/10 11:23:53;;;;;;;;;;;;;;;;;;2069306;28;20146;-89
2023/01/10 11:24:55;;;;;;;;;;;;;;;;;;2065229;28;19960;-90
2023/01/10 11:25:55;;;;;;;;;;;;;;;;;;2073557;28;19933;-89
2023/01/10 11:29:06;;;;;;;;;;;;;;;;;;2050287;28;20364;-90
2023/01/10 11:31:58;;;;;;;;;;;;;;;;;;2058355;28;19914;-89
2023/01/10 11:33:01;;;;;;;;;;;;;;;;;;2058033;28;19929;-89
2023/01/10 11:37:28;;;;;;;;;;;;;;;;;;2032797;29;19911;-90
2023/01/10 11:38:29;;;;;;;;;;;;;;;;;;2031945;29;19911;-91
2023/01/10 11:41:19;;;;;;;;;;;;;;;;;;2031794;29;19942;-92
2023/01/10 11:42:23;;;;;;;;;;;;;;;;;;2031553;29;19946;-93
2023/01/10 12:15:29;;;;;;;33.77;21.80;;;;;;;;;;2544956;22;1394669;-90
2023/01/10 12:22:25;;;;;;;49.90;29.40;;;;;;;;;;2511033;23;20082;-90
2023/01/10 12:23:12;;;;;;;52.58;30.90;;;;;;;;;;2539145;23;20469;-91
2023/01/10 12:24:50;;;;;;;53.67;31.20;;;;;;;;;;2562702;23;20012;-89
2023/01/10 12:26:06;;;;;;;55.45;34.47;;;;;;;;;;2546023;23;20461;-90
2023/01/10 12:27:11;;;;;;;59.30;32.67;;;;;;;;;;2550163;23;20442;-90
2023/01/10 12:28:59;;;;;;;;;;;;;;;;;;;;;
2023/01/10 12:30:58;;;;;;;;;;;;;;;;;;;;;
2023/01/10 12:32:02;;;;;;;61.78;36.40;;;;;;;;;;2601980;22;20001;-89
2023/01/10 12:33:10;;;;;;;59.03;37.70;;;;;;;;;;2596310;22;20003;-89
2023/01/10 12:34:18;;;;;;;47.35;31.08;;;;;;;;;;2585243;22;20432;-88
2023/01/10 12:44:56;;;;;;;46.17;26.88;;;;;;;;;;2560961;23;19997;-90
2023/01/10 12:46:29;;;;;;;51.80;30.25;;;;;;;;;;2563608;23;20224;-90
2023/01/10 12:48:08;;;;;;;48.38;29.38;;;;;;;;;;2509942;23;19998;-90
2023/01/10 12:55:57;;;;;;;231.85;118.53;;;;;;;;;;2605787;22;19999;-90
2023/01/10 12:58:21;;;;;;;153.90;76.78;;;;;;;;;;2584515;22;20014;-90
2023/01/10 12:59:59;;;;;;;61.05;36.03;;;;;;;;;;2611053;22;19999;-90
2023/01/10 13:01:03;;;;;;;48.83;30.27;;;;;;;;;;2608560;22;20008;-90
2023/01/10 13:02:33;;;;;;;42.70;25.92;;;;;;;;;;2604852;22;20018;-89
2023/01/10 13:03:36;;;;;;;42.90;27.65;;;;;;;;;;2599161;22;19991;-90
2023/01/10 13:11:58;;;;;;;;;;;;;;;;;;2549352;23;20028;-89
2023/01/10 13:13:39;;;;;;;57.05;32.22;;;;;;;;;;2562098;23;19904;-90
2023/01/10 13:17:11;;;;;;;54.72;34.22;;;;;;;;;;2510296;23;20114;-88
2023/01/10 13:30:36;;;;;;;32.35;23.85;;;;;;;;;;2571956;22;20018;-89
2023/01/10 13:31:40;;;;;;;37.95;26.10;;;;;;;;;;2584773;23;20035;-88
2023/01/10 13:33:27;;;;;;;41.42;27.15;;;;;;;;;;2588157;23;19988;-89
2023/01/10 13:34:54;;;;;;;36.03;23.95;;;;;;;;;;2584574;23;20074;-89
2023/01/10 13:36:35;;;;;;;47.90;31.15;;;;;;;;;;2585793;22;20000;-89
2023/01/10 13:37:40;;;;;;;65.80;43.22;;;;;;;;;;2519576;23;20346;-89
2023/01/10 13:39:47;;;;;;;;;;;;;;;;;;;;;
2023/01/10 13:41:02;;;;;;;68.22;44.42;;;;;;;;;;2548440;23;20001;-89
2023/01/10 13:43:37;;;;;;;65.00;40.88;;;;;;;;;;2587225;23;20357;-88
2023/01/10 13:44:59;;;;;;;62.47;39.53;;;;;;;;;;2581978;23;20075;-88
2023/01/10 13:46:18;;;;;;;74.25;45.85;;;;;;;;;;2586652;23;19999;-88
2023/01/10 13:50:17;;;;;;;68.38;39.38;;;;;;;;;;2524012;23;19998;-90
2023/01/10 13:51:19;;;;;;;55.10;35.53;;;;;;;;;;2527155;22;20073;-89
2023/01/10 13:52:29;;;;;;;52.20;34.10;;;;;;;;;;2581882;23;20151;-88
2023/01/10 14:10:18;;;;;;;71.47;42.15;;;;;;;;;;2560518;23;20411;-91
2023/01/10 14:11:19;;;;;;;;;;;;;;;;;;2540615;23;20009;-90
2023/01/10 14:12:31;;;;;;;;;;;;;;;;;;2545179;23;19909;-88
2023/01/10 14:13:32;;;;;;;69.13;39.88;;;;;;;;;;2553424;22;19948;-90
2023/01/10 14:16:39;;;;;;;62.60;38.70;;;;;;;;;;2547263;23;19916;-88
2023/01/10 14:17:40;;;;;;;63.40;39.03;;;;;;;;;;2580101;22;20012;-88
2023/01/10 14:36:55;;;;;;;138.48;75.15;;;;;;;;;;2572167;22;20028;-88
2023/01/10 14:38:32;;;;;;;136.65;76.15;;;;;;;;;;2595189;23;20036;-89
2023/01/10 14:39:36;;;;;;;125.90;73.70;;;;;;;;;;2557531;23;19996;-89
2023/01/10 14:48:33;;;;;;;132.32;76.82;;;;;;;;;;2588415;23;20456;-87
2023/01/10 14:50:00;;;;;;;;;;;;;;;;;;;;;
2023/01/10 14:51:43;;;;;;;144.77;85.72;;;;;;;;;;2579415;23;20042;-90
2023/01/10 14:52:49;;;;;;;156.48;99.68;;;;;;;;;;2141910;23;10002105;-86
2023/01/10 14:54:01;;;;;;;150.20;92.40;;;;;;;;;;2562089;23;20394;-87
2023/01/10 14:55:10;;;;;;;157.05;98.22;;;;;;;;;;2572551;23;20043;-89
2023/01/10 14:56:26;;;;;;;155.25;95.82;;;;;;;;;;2561680;23;20048;-87
2023/01/10 14:57:27;;;;;;;170.82;99.45;;;;;;;;;;2561287;23;20000;-88